sensor_id;sensor_type;location;lat;lon;timestamp;temperature;humidity
61591;DHT22;71994;52.410;-1.966;2023-12-28T00:02:31;15.40;55.90
61591;DHT22;71994;52.410;-1.966;2023-12-28T00:05:39;15.30;55.80
61591;DHT22;71994;52.410;-1.966;2023-12-28T00:08:45;15.30;55.80
61591;DHT22;71994;52.410;-1.966;2023-12-28T00:11:52;15.40;55.90
61591;DHT22;71994;52.410;-1.966;2023-12-28T00:14:58;15.40;55.90
61591;DHT22;71994;52.410;-1.966;2023-12-28T00:18:07;15.40;55.80
61591;DHT22;71994;52.410;-1.966;2023-12-28T00:21:14;15.40;55.80
61591;DHT22;71994;52.410;-1.966;2023-12-28T00:24:20;15.40;55.70
61591;DHT22;71994;52.410;-1.966;2023-12-28T00:27:27;15.40;55.80
61591;DHT22;71994;52.410;-1.966;2023-12-28T00:30:33;15.40;55.80
61591;DHT22;71994;52.410;-1.966;2023-12-28T00:33:42;15.40;55.70
61591;DHT22;71994;52.410;-1.966;2023-12-28T00:36:48;15.30;55.50
61591;DHT22;71994;52.410;-1.966;2023-12-28T00:39:55;15.40;55.50
61591;DHT22;71994;52.410;-1.966;2023-12-28T00:42:59;15.30;55.50
61591;DHT22;71994;52.410;-1.966;2023-12-28T00:46:05;15.30;55.60
61591;DHT22;71994;52.410;-1.966;2023-12-28T00:49:14;15.30;55.50
61591;DHT22;71994;52.410;-1.966;2023-12-28T00:52:20;15.30;55.50
61591;DHT22;71994;52.410;-1.966;2023-12-28T00:55:26;15.30;55.40
61591;DHT22;71994;52.410;-1.966;2023-12-28T00:58:33;15.30;55.40
61591;DHT22;71994;52.410;-1.966;2023-12-28T01:01:39;15.30;55.50
61591;DHT22;71994;52.410;-1.966;2023-12-28T01:04:48;15.30;55.60
61591;DHT22;71994;52.410;-1.966;2023-12-28T01:07:54;15.30;55.60
61591;DHT22;71994;52.410;-1.966;2023-12-28T01:11:01;15.30;55.70
61591;DHT22;71994;52.410;-1.966;2023-12-28T01:14:07;15.20;55.70
61591;DHT22;71994;52.410;-1.966;2023-12-28T01:17:14;15.20;55.60
61591;DHT22;71994;52.410;-1.966;2023-12-28T01:20:24;15.20;55.60
61591;DHT22;71994;52.410;-1.966;2023-12-28T01:23:30;15.20;55.60
61591;DHT22;71994;52.410;-1.966;2023-12-28T01:26:37;15.20;55.60
61591;DHT22;71994;52.410;-1.966;2023-12-28T01:29:43;15.20;55.60
61591;DHT22;71994;52.410;-1.966;2023-12-28T01:32:49;15.20;55.60
61591;DHT22;71994;52.410;-1.966;2023-12-28T01:35:58;15.20;55.60
61591;DHT22;71994;52.410;-1.966;2023-12-28T01:39:04;15.20;55.60
61591;DHT22;71994;52.410;-1.966;2023-12-28T01:42:11;15.20;55.60
61591;DHT22;71994;52.410;-1.966;2023-12-28T01:45:17;15.10;55.60
61591;DHT22;71994;52.410;-1.966;2023-12-28T01:48:23;15.10;55.60
61591;DHT22;71994;52.410;-1.966;2023-12-28T01:51:32;15.10;55.60
61591;DHT22;71994;52.410;-1.966;2023-12-28T01:54:39;15.10;55.60
61591;DHT22;71994;52.410;-1.966;2023-12-28T01:57:45;15.10;55.60
61591;DHT22;71994;52.410;-1.966;2023-12-28T02:00:52;15.10;55.70
61591;DHT22;71994;52.410;-1.966;2023-12-28T02:03:58;15.10;55.70
61591;DHT22;71994;52.410;-1.966;2023-12-28T02:07:08;15.10;55.70
61591;DHT22;71994;52.410;-1.966;2023-12-28T02:10:14;15.10;55.60
61591;DHT22;71994;52.410;-1.966;2023-12-28T02:13:20;15.00;55.60
61591;DHT22;71994;52.410;-1.966;2023-12-28T02:16:30;15.00;55.70
61591;DHT22;71994;52.410;-1.966;2023-12-28T02:19:43;15.00;55.80
61591;DHT22;71994;52.410;-1.966;2023-12-28T02:22:56;15.00;55.70
61591;DHT22;71994;52.410;-1.966;2023-12-28T02:26:03;15.00;55.70
61591;DHT22;71994;52.410;-1.966;2023-12-28T02:29:09;15.00;55.70
61591;DHT22;71994;52.410;-1.966;2023-12-28T02:32:17;15.00;55.60
61591;DHT22;71994;52.410;-1.966;2023-12-28T02:35:29;15.00;55.70
61591;DHT22;71994;52.410;-1.966;2023-12-28T02:38:38;15.00;55.70
61591;DHT22;71994;52.410;-1.966;2023-12-28T02:41:48;15.00;55.60
61591;DHT22;71994;52.410;-1.966;2023-12-28T02:44:54;15.00;55.60
61591;DHT22;71994;52.410;-1.966;2023-12-28T02:48:01;15.00;55.50
61591;DHT22;71994;52.410;-1.966;2023-12-28T02:51:07;15.00;55.50
61591;DHT22;71994;52.410;-1.966;2023-12-28T02:54:13;15.00;55.50
61591;DHT22;71994;52.410;-1.966;2023-12-28T02:57:22;15.00;55.30
61591;DHT22;71994;52.410;-1.966;2023-12-28T03:00:28;15.00;55.20
61591;DHT22;71994;52.410;-1.966;2023-12-28T03:03:35;15.00;55.30
61591;DHT22;71994;52.410;-1.966;2023-12-28T03:06:41;15.00;55.40
61591;DHT22;71994;52.410;-1.966;2023-12-28T03:09:47;15.00;55.40
61591;DHT22;71994;52.410;-1.966;2023-12-28T03:12:56;15.00;55.40
61591;DHT22;71994;52.410;-1.966;2023-12-28T03:16:03;15.00;55.20
61591;DHT22;71994;52.410;-1.966;2023-12-28T03:19:10;14.90;55.40
61591;DHT22;71994;52.410;-1.966;2023-12-28T03:22:16;14.90;55.20
61591;DHT22;71994;52.410;-1.966;2023-12-28T03:25:23;14.90;55.30
61591;DHT22;71994;52.410;-1.966;2023-12-28T03:28:32;14.90;55.30
61591;DHT22;71994;52.410;-1.966;2023-12-28T03:31:39;14.90;55.30
61591;DHT22;71994;52.410;-1.966;2023-12-28T03:34:45;14.90;55.30
61591;DHT22;71994;52.410;-1.966;2023-12-28T03:37:51;14.80;55.30
61591;DHT22;71994;52.410;-1.966;2023-12-28T03:40:57;14.90;55.20
61591;DHT22;71994;52.410;-1.966;2023-12-28T03:44:06;14.90;55.20
61591;DHT22;71994;52.410;-1.966;2023-12-28T03:47:13;14.80;55.30
61591;DHT22;71994;52.410;-1.966;2023-12-28T03:50:19;14.80;55.30
61591;DHT22;71994;52.410;-1.966;2023-12-28T03:53:25;14.80;55.20
61591;DHT22;71994;52.410;-1.966;2023-12-28T03:56:32;14.80;55.20
61591;DHT22;71994;52.410;-1.966;2023-12-28T03:59:42;14.80;55.20
61591;DHT22;71994;52.410;-1.966;2023-12-28T04:02:50;14.80;55.10
61591;DHT22;71994;52.410;-1.966;2023-12-28T04:05:56;14.80;55.20
61591;DHT22;71994;52.410;-1.966;2023-12-28T04:09:03;14.80;55.20
61591;DHT22;71994;52.410;-1.966;2023-12-28T04:12:09;14.80;55.20
61591;DHT22;71994;52.410;-1.966;2023-12-28T04:15:18;14.80;55.20
61591;DHT22;71994;52.410;-1.966;2023-12-28T04:18:25;14.80;55.20
61591;DHT22;71994;52.410;-1.966;2023-12-28T04:21:31;14.80;55.10
61591;DHT22;71994;52.410;-1.966;2023-12-28T04:24:37;14.80;55.10
61591;DHT22;71994;52.410;-1.966;2023-12-28T04:27:43;14.80;55.10
61591;DHT22;71994;52.410;-1.966;2023-12-28T04:30:50;14.80;55.10
61591;DHT22;71994;52.410;-1.966;2023-12-28T04:33:56;14.80;55.10
61591;DHT22;71994;52.410;-1.966;2023-12-28T04:37:03;14.80;55.10
61591;DHT22;71994;52.410;-1.966;2023-12-28T04:40:09;14.80;55.10
61591;DHT22;71994;52.410;-1.966;2023-12-28T04:43:17;14.80;55.10
61591;DHT22;71994;52.410;-1.966;2023-12-28T04:46:27;14.80;55.20
61591;DHT22;71994;52.410;-1.966;2023-12-28T04:49:33;14.80;55.20
61591;DHT22;71994;52.410;-1.966;2023-12-28T04:52:39;14.70;55.00
61591;DHT22;71994;52.410;-1.966;2023-12-28T04:55:46;14.70;55.30
61591;DHT22;71994;52.410;-1.966;2023-12-28T04:58:53;14.70;55.20
61591;DHT22;71994;52.410;-1.966;2023-12-28T05:02:02;14.70;55.10
61591;DHT22;71994;52.410;-1.966;2023-12-28T05:05:11;14.70;55.20
61591;DHT22;71994;52.410;-1.966;2023-12-28T05:08:17;14.70;55.10
61591;DHT22;71994;52.410;-1.966;2023-12-28T05:11:23;14.70;55.10
61591;DHT22;71994;52.410;-1.966;2023-12-28T05:14:27;14.70;54.80
61591;DHT22;71994;52.410;-1.966;2023-12-28T05:17:37;14.70;55.00
61591;DHT22;71994;52.410;-1.966;2023-12-28T05:20:44;14.70;55.00
61591;DHT22;71994;52.410;-1.966;2023-12-28T05:23:50;14.70;54.80
61591;DHT22;71994;52.410;-1.966;2023-12-28T05:26:56;14.60;54.90
61591;DHT22;71994;52.410;-1.966;2023-12-28T05:30:03;14.70;55.00
61591;DHT22;71994;52.410;-1.966;2023-12-28T05:33:12;14.60;55.10
61591;DHT22;71994;52.410;-1.966;2023-12-28T05:36:19;14.60;55.10
61591;DHT22;71994;52.410;-1.966;2023-12-28T05:39:25;14.60;55.00
61591;DHT22;71994;52.410;-1.966;2023-12-28T05:42:29;14.60;54.80
61591;DHT22;71994;52.410;-1.966;2023-12-28T05:45:36;14.60;55.00
61591;DHT22;71994;52.410;-1.966;2023-12-28T05:48:42;14.60;55.10
61591;DHT22;71994;52.410;-1.966;2023-12-28T05:51:49;14.60;55.10
61591;DHT22;71994;52.410;-1.966;2023-12-28T05:54:55;14.60;55.10
61591;DHT22;71994;52.410;-1.966;2023-12-28T05:58:02;14.60;55.00
61591;DHT22;71994;52.410;-1.966;2023-12-28T06:01:08;14.60;55.10
61591;DHT22;71994;52.410;-1.966;2023-12-28T06:04:17;14.60;55.10
61591;DHT22;71994;52.410;-1.966;2023-12-28T06:07:23;14.60;55.20
61591;DHT22;71994;52.410;-1.966;2023-12-28T06:10:30;14.60;55.30
61591;DHT22;71994;52.410;-1.966;2023-12-28T06:13:36;14.60;55.20
61591;DHT22;71994;52.410;-1.966;2023-12-28T06:16:42;14.60;55.20
61591;DHT22;71994;52.410;-1.966;2023-12-28T06:19:51;14.60;55.20
61591;DHT22;71994;52.410;-1.966;2023-12-28T06:22:57;14.60;55.10
61591;DHT22;71994;52.410;-1.966;2023-12-28T06:26:07;14.60;55.30
61591;DHT22;71994;52.410;-1.966;2023-12-28T06:29:13;14.60;55.30
61591;DHT22;71994;52.410;-1.966;2023-12-28T06:32:19;14.60;55.30
61591;DHT22;71994;52.410;-1.966;2023-12-28T06:35:28;14.70;54.90
61591;DHT22;71994;52.410;-1.966;2023-12-28T06:38:34;14.80;54.80
61591;DHT22;71994;52.410;-1.966;2023-12-28T06:41:41;15.00;54.70
61591;DHT22;71994;52.410;-1.966;2023-12-28T06:44:47;15.00;54.40
61591;DHT22;71994;52.410;-1.966;2023-12-28T06:47:54;15.10;54.20
61591;DHT22;71994;52.410;-1.966;2023-12-28T06:51:03;15.20;54.00
61591;DHT22;71994;52.410;-1.966;2023-12-28T06:54:09;15.30;53.80
61591;DHT22;71994;52.410;-1.966;2023-12-28T06:57:13;15.30;53.70
61591;DHT22;71994;52.410;-1.966;2023-12-28T07:00:19;15.40;53.60
61591;DHT22;71994;52.410;-1.966;2023-12-28T07:03:26;15.40;53.50
61591;DHT22;71994;52.410;-1.966;2023-12-28T07:06:38;15.40;53.40
61591;DHT22;71994;52.410;-1.966;2023-12-28T07:09:44;15.40;53.40
61591;DHT22;71994;52.410;-1.966;2023-12-28T07:12:50;15.40;53.40
61591;DHT22;71994;52.410;-1.966;2023-12-28T07:15:56;15.50;53.50
61591;DHT22;71994;52.410;-1.966;2023-12-28T07:19:03;15.60;53.40
61591;DHT22;71994;52.410;-1.966;2023-12-28T07:22:12;15.80;53.10
61591;DHT22;71994;52.410;-1.966;2023-12-28T07:25:19;16.00;52.70
61591;DHT22;71994;52.410;-1.966;2023-12-28T07:28:25;16.20;52.40
61591;DHT22;71994;52.410;-1.966;2023-12-28T07:31:31;16.40;52.10
61591;DHT22;71994;52.410;-1.966;2023-12-28T07:34:37;16.60;51.80
61591;DHT22;71994;52.410;-1.966;2023-12-28T07:37:46;16.70;51.60
61591;DHT22;71994;52.410;-1.966;2023-12-28T07:40:52;16.90;51.10
61591;DHT22;71994;52.410;-1.966;2023-12-28T07:43:59;17.10;51.00
61591;DHT22;71994;52.410;-1.966;2023-12-28T07:47:05;17.10;50.60
61591;DHT22;71994;52.410;-1.966;2023-12-28T07:50:11;17.30;50.40
61591;DHT22;71994;52.410;-1.966;2023-12-28T07:53:20;17.40;50.40
61591;DHT22;71994;52.410;-1.966;2023-12-28T07:56:27;17.40;50.20
61591;DHT22;71994;52.410;-1.966;2023-12-28T07:59:33;17.50;50.30
61591;DHT22;71994;52.410;-1.966;2023-12-28T08:02:39;17.60;50.20
61591;DHT22;71994;52.410;-1.966;2023-12-28T08:05:46;17.60;50.00
61591;DHT22;71994;52.410;-1.966;2023-12-28T08:08:55;17.70;49.80
61591;DHT22;71994;52.410;-1.966;2023-12-28T08:12:02;17.70;50.00
61591;DHT22;71994;52.410;-1.966;2023-12-28T08:15:09;17.80;49.80
61591;DHT22;71994;52.410;-1.966;2023-12-28T08:18:18;17.80;49.80
61591;DHT22;71994;52.410;-1.966;2023-12-28T08:21:24;17.80;49.80
61591;DHT22;71994;52.410;-1.966;2023-12-28T08:24:33;17.70;49.80
61591;DHT22;71994;52.410;-1.966;2023-12-28T08:27:39;17.70;49.90
61591;DHT22;71994;52.410;-1.966;2023-12-28T08:30:46;17.60;50.00
61591;DHT22;71994;52.410;-1.966;2023-12-28T08:33:52;17.60;50.20
61591;DHT22;71994;52.410;-1.966;2023-12-28T08:36:59;17.50;50.10
61591;DHT22;71994;52.410;-1.966;2023-12-28T08:40:09;17.40;50.40
61591;DHT22;71994;52.410;-1.966;2023-12-28T08:43:15;17.40;50.40
61591;DHT22;71994;52.410;-1.966;2023-12-28T08:46:22;17.30;50.60
61591;DHT22;71994;52.410;-1.966;2023-12-28T08:49:29;17.20;50.60
61591;DHT22;71994;52.410;-1.966;2023-12-28T08:52:36;17.10;50.90
61591;DHT22;71994;52.410;-1.966;2023-12-28T08:55:45;17.10;51.00
61591;DHT22;71994;52.410;-1.966;2023-12-28T08:58:51;17.00;51.20
61591;DHT22;71994;52.410;-1.966;2023-12-28T09:01:57;17.00;51.20
61591;DHT22;71994;52.410;-1.966;2023-12-28T09:05:05;16.90;51.30
61591;DHT22;71994;52.410;-1.966;2023-12-28T09:08:11;16.80;51.40
61591;DHT22;71994;52.410;-1.966;2023-12-28T09:11:20;16.80;51.50
61591;DHT22;71994;52.410;-1.966;2023-12-28T09:14:27;16.70;51.60
61591;DHT22;71994;52.410;-1.966;2023-12-28T09:17:33;16.60;51.80
61591;DHT22;71994;52.410;-1.966;2023-12-28T09:20:39;16.60;51.80
61591;DHT22;71994;52.410;-1.966;2023-12-28T09:23:46;16.60;51.90
61591;DHT22;71994;52.410;-1.966;2023-12-28T09:26:55;16.60;51.90
61591;DHT22;71994;52.410;-1.966;2023-12-28T09:30:01;16.50;52.00
61591;DHT22;71994;52.410;-1.966;2023-12-28T09:33:07;16.40;52.10
61591;DHT22;71994;52.410;-1.966;2023-12-28T09:36:13;16.40;52.20
61591;DHT22;71994;52.410;-1.966;2023-12-28T09:39:19;16.40;52.30
61591;DHT22;71994;52.410;-1.966;2023-12-28T09:42:32;16.40;52.40
61591;DHT22;71994;52.410;-1.966;2023-12-28T09:45:40;16.50;52.40
61591;DHT22;71994;52.410;-1.966;2023-12-28T09:48:46;16.60;52.50
61591;DHT22;71994;52.410;-1.966;2023-12-28T09:51:51;16.60;52.30
61591;DHT22;71994;52.410;-1.966;2023-12-28T09:54:57;16.80;52.00
61591;DHT22;71994;52.410;-1.966;2023-12-28T09:58:07;17.00;51.60
61591;DHT22;71994;52.410;-1.966;2023-12-28T10:01:14;17.20;51.20
61591;DHT22;71994;52.410;-1.966;2023-12-28T10:04:20;17.40;50.80
61591;DHT22;71994;52.410;-1.966;2023-12-28T10:07:27;17.60;50.60
61591;DHT22;71994;52.410;-1.966;2023-12-28T10:10:33;17.80;50.20
61591;DHT22;71994;52.410;-1.966;2023-12-28T10:13:42;18.00;50.10
61591;DHT22;71994;52.410;-1.966;2023-12-28T10:16:48;18.10;49.80
61591;DHT22;71994;52.410;-1.966;2023-12-28T10:19:54;18.10;49.70
61591;DHT22;71994;52.410;-1.966;2023-12-28T10:23:06;18.20;49.70
61591;DHT22;71994;52.410;-1.966;2023-12-28T10:26:13;18.20;49.60
61591;DHT22;71994;52.410;-1.966;2023-12-28T10:29:24;18.30;49.60
61591;DHT22;71994;52.410;-1.966;2023-12-28T10:32:30;18.20;49.70
61591;DHT22;71994;52.410;-1.966;2023-12-28T10:35:37;18.20;49.70
61591;DHT22;71994;52.410;-1.966;2023-12-28T10:38:44;18.20;49.80
61591;DHT22;71994;52.410;-1.966;2023-12-28T10:41:54;18.10;49.80
61591;DHT22;71994;52.410;-1.966;2023-12-28T10:45:06;18.00;50.00
61591;DHT22;71994;52.410;-1.966;2023-12-28T10:48:13;18.00;50.20
61591;DHT22;71994;52.410;-1.966;2023-12-28T10:51:20;17.90;50.30
61591;DHT22;71994;52.410;-1.966;2023-12-28T10:54:40;17.90;50.30
61591;DHT22;71994;52.410;-1.966;2023-12-28T10:57:53;17.80;50.50
61591;DHT22;71994;52.410;-1.966;2023-12-28T11:01:06;17.70;50.70
61591;DHT22;71994;52.410;-1.966;2023-12-28T11:04:17;17.60;50.90
61591;DHT22;71994;52.410;-1.966;2023-12-28T11:07:26;17.50;51.10
61591;DHT22;71994;52.410;-1.966;2023-12-28T11:10:36;17.50;51.20
61591;DHT22;71994;52.410;-1.966;2023-12-28T11:13:48;17.40;51.40
61591;DHT22;71994;52.410;-1.966;2023-12-28T11:16:59;17.30;51.50
61591;DHT22;71994;52.410;-1.966;2023-12-28T11:20:07;17.20;51.70
61591;DHT22;71994;52.410;-1.966;2023-12-28T11:23:14;17.10;51.80
61591;DHT22;71994;52.410;-1.966;2023-12-28T11:26:21;17.10;51.90
61591;DHT22;71994;52.410;-1.966;2023-12-28T11:29:29;17.10;52.00
61591;DHT22;71994;52.410;-1.966;2023-12-28T11:32:40;17.00;52.10
61591;DHT22;71994;52.410;-1.966;2023-12-28T11:35:48;17.00;52.20
61591;DHT22;71994;52.410;-1.966;2023-12-28T11:38:53;16.90;52.30
61591;DHT22;71994;52.410;-1.966;2023-12-28T11:42:03;16.90;52.40
61591;DHT22;71994;52.410;-1.966;2023-12-28T11:45:11;16.90;52.50
61591;DHT22;71994;52.410;-1.966;2023-12-28T11:48:26;16.80;52.50
61591;DHT22;71994;52.410;-1.966;2023-12-28T11:51:35;16.80;52.60
61591;DHT22;71994;52.410;-1.966;2023-12-28T11:54:48;16.80;52.60
61591;DHT22;71994;52.410;-1.966;2023-12-28T11:57:54;16.70;52.70
61591;DHT22;71994;52.410;-1.966;2023-12-28T12:01:01;16.70;52.80
61591;DHT22;71994;52.410;-1.966;2023-12-28T12:04:11;16.60;52.90
61591;DHT22;71994;52.410;-1.966;2023-12-28T12:07:15;16.60;53.00
61591;DHT22;71994;52.410;-1.966;2023-12-28T12:10:21;16.60;53.00
61591;DHT22;71994;52.410;-1.966;2023-12-28T12:13:28;16.60;53.00
61591;DHT22;71994;52.410;-1.966;2023-12-28T12:16:35;16.70;53.10
61591;DHT22;71994;52.410;-1.966;2023-12-28T12:19:44;16.80;52.90
61591;DHT22;71994;52.410;-1.966;2023-12-28T12:22:54;17.00;52.70
61591;DHT22;71994;52.410;-1.966;2023-12-28T12:26:00;17.20;52.40
61591;DHT22;71994;52.410;-1.966;2023-12-28T12:29:06;17.40;51.90
61591;DHT22;71994;52.410;-1.966;2023-12-28T12:32:13;17.60;51.50
61591;DHT22;71994;52.410;-1.966;2023-12-28T12:35:22;17.80;51.20
61591;DHT22;71994;52.410;-1.966;2023-12-28T12:38:29;18.00;51.00
61591;DHT22;71994;52.410;-1.966;2023-12-28T12:41:36;18.00;50.80
61591;DHT22;71994;52.410;-1.966;2023-12-28T12:44:42;18.10;50.70
61591;DHT22;71994;52.410;-1.966;2023-12-28T12:47:48;18.10;50.70
61591;DHT22;71994;52.410;-1.966;2023-12-28T12:50:57;18.10;50.70
61591;DHT22;71994;52.410;-1.966;2023-12-28T12:54:03;18.10;50.70
61591;DHT22;71994;52.410;-1.966;2023-12-28T12:57:10;18.10;50.80
61591;DHT22;71994;52.410;-1.966;2023-12-28T13:00:16;18.00;50.80
61591;DHT22;71994;52.410;-1.966;2023-12-28T13:03:27;18.00;50.90
61591;DHT22;71994;52.410;-1.966;2023-12-28T13:06:37;17.90;51.00
61591;DHT22;71994;52.410;-1.966;2023-12-28T13:09:44;17.80;51.10
61591;DHT22;71994;52.410;-1.966;2023-12-28T13:12:50;17.70;51.30
61591;DHT22;71994;52.410;-1.966;2023-12-28T13:15:59;17.60;51.50
61591;DHT22;71994;52.410;-1.966;2023-12-28T13:19:22;17.60;51.70
61591;DHT22;71994;52.410;-1.966;2023-12-28T13:22:32;17.50;51.90
61591;DHT22;71994;52.410;-1.966;2023-12-28T13:25:38;17.40;51.90
61591;DHT22;71994;52.410;-1.966;2023-12-28T13:28:44;17.40;52.10
61591;DHT22;71994;52.410;-1.966;2023-12-28T13:31:51;17.30;52.20
61591;DHT22;71994;52.410;-1.966;2023-12-28T13:34:57;17.20;52.30
61591;DHT22;71994;52.410;-1.966;2023-12-28T13:38:06;17.10;52.40
61591;DHT22;71994;52.410;-1.966;2023-12-28T13:41:12;17.10;52.50
61591;DHT22;71994;52.410;-1.966;2023-12-28T13:44:19;17.10;52.70
61591;DHT22;71994;52.410;-1.966;2023-12-28T13:47:25;17.00;52.70
61591;DHT22;71994;52.410;-1.966;2023-12-28T13:50:31;17.00;52.70
61591;DHT22;71994;52.410;-1.966;2023-12-28T13:53:40;17.00;52.70
61591;DHT22;71994;52.410;-1.966;2023-12-28T13:56:46;17.00;52.80
61591;DHT22;71994;52.410;-1.966;2023-12-28T13:59:53;17.00;52.80
61591;DHT22;71994;52.410;-1.966;2023-12-28T14:03:03;16.90;52.80
61591;DHT22;71994;52.410;-1.966;2023-12-28T14:06:09;16.90;52.90
61591;DHT22;71994;52.410;-1.966;2023-12-28T14:09:19;16.80;53.00
61591;DHT22;71994;52.410;-1.966;2023-12-28T14:12:25;16.80;53.00
61591;DHT22;71994;52.410;-1.966;2023-12-28T14:15:31;16.80;53.00
61591;DHT22;71994;52.410;-1.966;2023-12-28T14:18:39;16.80;53.00
61591;DHT22;71994;52.410;-1.966;2023-12-28T14:21:46;16.70;53.10
61591;DHT22;71994;52.410;-1.966;2023-12-28T14:24:55;16.70;53.10
61591;DHT22;71994;52.410;-1.966;2023-12-28T14:28:00;16.70;53.20
61591;DHT22;71994;52.410;-1.966;2023-12-28T14:31:07;16.70;53.20
61591;DHT22;71994;52.410;-1.966;2023-12-28T14:34:12;16.60;53.30
61591;DHT22;71994;52.410;-1.966;2023-12-28T14:37:18;16.60;53.30
61591;DHT22;71994;52.410;-1.966;2023-12-28T14:40:28;16.60;53.40
61591;DHT22;71994;52.410;-1.966;2023-12-28T14:43:34;16.70;53.40
61591;DHT22;71994;52.410;-1.966;2023-12-28T14:46:40;16.80;53.30
61591;DHT22;71994;52.410;-1.966;2023-12-28T14:49:47;17.00;53.00
61591;DHT22;71994;52.410;-1.966;2023-12-28T14:52:53;17.20;52.70
61591;DHT22;71994;52.410;-1.966;2023-12-28T14:56:02;17.40;52.20
61591;DHT22;71994;52.410;-1.966;2023-12-28T14:59:09;17.60;51.90
61591;DHT22;71994;52.410;-1.966;2023-12-28T15:02:15;17.70;51.40
61591;DHT22;71994;52.410;-1.966;2023-12-28T15:05:19;17.90;51.30
61591;DHT22;71994;52.410;-1.966;2023-12-28T15:08:25;18.00;51.10
61591;DHT22;71994;52.410;-1.966;2023-12-28T15:11:35;18.00;51.10
61591;DHT22;71994;52.410;-1.966;2023-12-28T15:14:43;18.00;51.00
61591;DHT22;71994;52.410;-1.966;2023-12-28T15:17:50;18.00;51.00
61591;DHT22;71994;52.410;-1.966;2023-12-28T15:20:58;18.00;51.00
61591;DHT22;71994;52.410;-1.966;2023-12-28T15:24:05;17.90;51.00
61591;DHT22;71994;52.410;-1.966;2023-12-28T15:27:14;17.90;51.00
61591;DHT22;71994;52.410;-1.966;2023-12-28T15:30:20;17.80;51.20
61591;DHT22;71994;52.410;-1.966;2023-12-28T15:33:27;17.80;51.20
61591;DHT22;71994;52.410;-1.966;2023-12-28T15:36:33;17.70;51.30
61591;DHT22;71994;52.410;-1.966;2023-12-28T15:39:39;17.60;51.50
61591;DHT22;71994;52.410;-1.966;2023-12-28T15:42:49;17.60;51.70
61591;DHT22;71994;52.410;-1.966;2023-12-28T15:45:56;17.50;51.80
61591;DHT22;71994;52.410;-1.966;2023-12-28T15:49:02;17.40;51.90
61591;DHT22;71994;52.410;-1.966;2023-12-28T15:52:08;17.40;52.00
61591;DHT22;71994;52.410;-1.966;2023-12-28T15:55:14;17.30;52.10
61591;DHT22;71994;52.410;-1.966;2023-12-28T15:58:24;17.20;52.20
61591;DHT22;71994;52.410;-1.966;2023-12-28T16:01:30;17.20;52.40
61591;DHT22;71994;52.410;-1.966;2023-12-28T16:04:36;17.10;52.40
61591;DHT22;71994;52.410;-1.966;2023-12-28T16:07:43;17.10;52.50
61591;DHT22;71994;52.410;-1.966;2023-12-28T16:10:49;17.10;52.60
61591;DHT22;71994;52.410;-1.966;2023-12-28T16:13:59;17.10;52.70
61591;DHT22;71994;52.410;-1.966;2023-12-28T16:17:04;17.00;52.70
61591;DHT22;71994;52.410;-1.966;2023-12-28T16:20:12;17.00;52.70
61591;DHT22;71994;52.410;-1.966;2023-12-28T16:23:19;17.00;52.80
61591;DHT22;71994;52.410;-1.966;2023-12-28T16:26:25;17.00;52.80
61591;DHT22;71994;52.410;-1.966;2023-12-28T16:29:34;16.90;52.90
61591;DHT22;71994;52.410;-1.966;2023-12-28T16:32:41;16.90;52.90
61591;DHT22;71994;52.410;-1.966;2023-12-28T16:35:49;16.90;52.90
61591;DHT22;71994;52.410;-1.966;2023-12-28T16:38:58;16.90;52.90
61591;DHT22;71994;52.410;-1.966;2023-12-28T16:42:04;16.80;52.90
61591;DHT22;71994;52.410;-1.966;2023-12-28T16:45:14;16.80;53.00
61591;DHT22;71994;52.410;-1.966;2023-12-28T16:48:20;16.80;53.10
61591;DHT22;71994;52.410;-1.966;2023-12-28T16:51:26;16.70;53.10
61591;DHT22;71994;52.410;-1.966;2023-12-28T16:54:32;16.70;53.10
61591;DHT22;71994;52.410;-1.966;2023-12-28T16:57:38;16.70;53.20
61591;DHT22;71994;52.410;-1.966;2023-12-28T17:00:47;16.60;53.20
61591;DHT22;71994;52.410;-1.966;2023-12-28T17:03:54;16.60;53.30
61591;DHT22;71994;52.410;-1.966;2023-12-28T17:07:01;16.60;53.30
61591;DHT22;71994;52.410;-1.966;2023-12-28T17:10:08;16.60;53.40
61591;DHT22;71994;52.410;-1.966;2023-12-28T17:13:15;16.70;53.40
61591;DHT22;71994;52.410;-1.966;2023-12-28T17:16:31;16.80;53.30
61591;DHT22;71994;52.410;-1.966;2023-12-28T17:19:37;17.00;53.00
61591;DHT22;71994;52.410;-1.966;2023-12-28T17:22:45;17.20;52.50
61591;DHT22;71994;52.410;-1.966;2023-12-28T17:25:58;17.50;52.00
61591;DHT22;71994;52.410;-1.966;2023-12-28T17:29:07;17.70;51.70
61591;DHT22;71994;52.410;-1.966;2023-12-28T17:32:16;17.80;51.50
61591;DHT22;71994;52.410;-1.966;2023-12-28T17:35:24;17.90;51.20
61591;DHT22;71994;52.410;-1.966;2023-12-28T17:38:30;18.00;51.00
61591;DHT22;71994;52.410;-1.966;2023-12-28T17:41:38;18.00;50.90
61591;DHT22;71994;52.410;-1.966;2023-12-28T17:44:47;18.00;50.80
61591;DHT22;71994;52.410;-1.966;2023-12-28T17:48:05;18.00;50.70
61591;DHT22;71994;52.410;-1.966;2023-12-28T17:51:12;18.00;50.80
61591;DHT22;71994;52.410;-1.966;2023-12-28T17:54:20;17.90;50.90
61591;DHT22;71994;52.410;-1.966;2023-12-28T17:57:26;17.90;50.80
61591;DHT22;71994;52.410;-1.966;2023-12-28T18:00:33;17.80;50.90
61591;DHT22;71994;52.410;-1.966;2023-12-28T18:03:43;17.70;51.00
61591;DHT22;71994;52.410;-1.966;2023-12-28T18:06:50;17.60;51.10
61591;DHT22;71994;52.410;-1.966;2023-12-28T18:10:00;17.60;51.20
61591;DHT22;71994;52.410;-1.966;2023-12-28T18:13:07;17.50;51.50
61591;DHT22;71994;52.410;-1.966;2023-12-28T18:16:14;17.40;51.60
61591;DHT22;71994;52.410;-1.966;2023-12-28T18:19:24;17.40;51.80
61591;DHT22;71994;52.410;-1.966;2023-12-28T18:22:28;17.30;51.80
61591;DHT22;71994;52.410;-1.966;2023-12-28T18:25:51;17.30;51.90
61591;DHT22;71994;52.410;-1.966;2023-12-28T18:29:13;17.20;52.00
61591;DHT22;71994;52.410;-1.966;2023-12-28T18:32:36;17.10;52.00
61591;DHT22;71994;52.410;-1.966;2023-12-28T18:35:45;17.10;52.10
61591;DHT22;71994;52.410;-1.966;2023-12-28T18:38:51;17.10;52.10
61591;DHT22;71994;52.410;-1.966;2023-12-28T18:41:57;17.00;52.30
61591;DHT22;71994;52.410;-1.966;2023-12-28T18:45:05;17.00;52.30
61591;DHT22;71994;52.410;-1.966;2023-12-28T18:48:12;17.00;52.30
61591;DHT22;71994;52.410;-1.966;2023-12-28T18:51:22;17.00;52.30
61591;DHT22;71994;52.410;-1.966;2023-12-28T18:54:28;17.00;52.40
61591;DHT22;71994;52.410;-1.966;2023-12-28T18:57:34;16.90;52.30
61591;DHT22;71994;52.410;-1.966;2023-12-28T19:00:40;16.90;52.40
61591;DHT22;71994;52.410;-1.966;2023-12-28T19:03:47;16.90;52.50
61591;DHT22;71994;52.410;-1.966;2023-12-28T19:06:56;16.90;52.30
61591;DHT22;71994;52.410;-1.966;2023-12-28T19:10:03;16.80;52.50
61591;DHT22;71994;52.410;-1.966;2023-12-28T19:13:09;16.80;52.30
61591;DHT22;71994;52.410;-1.966;2023-12-28T19:16:17;16.80;52.50
61591;DHT22;71994;52.410;-1.966;2023-12-28T19:19:23;16.80;52.40
61591;DHT22;71994;52.410;-1.966;2023-12-28T19:22:35;16.70;52.50
61591;DHT22;71994;52.410;-1.966;2023-12-28T19:25:42;16.70;52.60